createdAt,value
2022-08-26T00:02:00.691Z,22.23
2022-08-26T00:04:29.485Z,22.21
2022-08-26T00:06:58.178Z,22.28
2022-08-26T00:09:27.810Z,22.19
2022-08-26T00:11:56.589Z,22.07
2022-08-26T00:14:31.248Z,22.12
2022-08-26T00:17:01.580Z,22.22
2022-08-26T00:19:29.941Z,22.11
2022-08-26T00:21:58.384Z,22.13
2022-08-26T00:24:26.930Z,22.15
2022-08-26T00:26:55.222Z,22.16
2022-08-26T00:29:23.450Z,22.09
2022-08-26T00:31:52.213Z,22.15
2022-08-26T00:34:22.024Z,22.15
2022-08-26T00:36:52.037Z,22.13
2022-08-26T00:39:21.287Z,22.20
2022-08-26T00:41:50.628Z,22.23
2022-08-26T00:44:19.745Z,22.23
2022-08-26T00:46:52.268Z,22.13
2022-08-26T00:49:26.561Z,22.22
2022-08-26T00:52:00.322Z,22.23
2022-08-26T00:54:34.661Z,22.15
2022-08-26T00:57:08.741Z,22.17
2022-08-26T00:59:46.866Z,22.21
2022-08-26T01:02:20.798Z,22.25
2022-08-26T01:04:55.521Z,22.19
2022-08-26T01:07:26.219Z,22.20
2022-08-26T01:09:55.922Z,22.14
2022-08-26T01:12:26.288Z,22.20
2022-08-26T01:14:54.691Z,22.16
2022-08-26T01:17:23.089Z,22.06
2022-08-26T01:19:55.535Z,21.98
2022-08-26T01:22:28.852Z,22.01
2022-08-26T01:24:59.922Z,22.03
2022-08-26T01:27:32.969Z,21.99
2022-08-26T01:30:03.509Z,21.91
2022-08-26T01:32:34.430Z,21.93
2022-08-26T01:35:03.691Z,21.98
2022-08-26T01:37:37.271Z,21.98
2022-08-26T01:40:18.547Z,21.96
2022-08-26T01:42:49.250Z,22.00
2022-08-26T01:45:22.411Z,22.01
2022-08-26T01:47:57.183Z,22.11
2022-08-26T01:50:30.726Z,22.09
2022-08-26T01:53:02.475Z,22.07
2022-08-26T01:55:34.137Z,22.06
2022-08-26T01:58:06.367Z,22.06
2022-08-26T02:00:35.924Z,22.08
2022-08-26T02:03:18.154Z,22.00
2022-08-26T02:05:48.777Z,21.96
2022-08-26T02:08:24.859Z,21.98
2022-08-26T02:10:55.807Z,21.89
2022-08-26T02:13:27.883Z,21.82
2022-08-26T02:15:56.569Z,21.75
2022-08-26T02:18:26.401Z,21.70
2022-08-26T02:20:57.237Z,21.68
2022-08-26T02:23:26.278Z,21.57
2022-08-26T02:26:01.438Z,21.56
2022-08-26T02:28:33.121Z,21.50
2022-08-26T02:31:01.778Z,21.55
2022-08-26T02:33:31.205Z,21.57
2022-08-26T02:36:00.491Z,21.57
2022-08-26T02:38:29.638Z,21.61
2022-08-26T02:40:59.186Z,21.62
2022-08-26T02:43:31.291Z,21.62
2022-08-26T02:46:02.393Z,21.70
2022-08-26T02:48:31.324Z,21.61
2022-08-26T02:51:01.851Z,21.65
2022-08-26T02:53:31.827Z,21.69
2022-08-26T02:56:05.475Z,21.73
2022-08-26T02:58:35.275Z,21.72
2022-08-26T03:01:04.959Z,21.72
2022-08-26T03:03:34.094Z,21.68
2022-08-26T03:06:02.428Z,21.68
2022-08-26T03:08:30.692Z,21.67
2022-08-26T03:10:59.322Z,21.74
2022-08-26T03:13:31.323Z,21.71
2022-08-26T03:16:02.443Z,21.70
2022-08-26T03:18:30.861Z,21.77
2022-08-26T03:20:59.332Z,21.78
2022-08-26T03:23:28.035Z,21.85
2022-08-26T03:25:56.866Z,21.95
2022-08-26T03:28:27.041Z,22.04
2022-08-26T03:30:57.166Z,22.21
2022-08-26T03:33:26.489Z,22.34
2022-08-26T03:35:55.712Z,22.50
2022-08-26T03:38:26.322Z,22.58
2022-08-26T03:40:55.632Z,22.67
2022-08-26T03:43:26.831Z,22.73
2022-08-26T03:45:56.572Z,22.88
2022-08-26T03:48:25.486Z,23.00
2022-08-26T03:50:53.630Z,23.08
2022-08-26T03:53:21.783Z,23.19
2022-08-26T03:55:51.822Z,23.26
2022-08-26T03:58:20.811Z,23.21
2022-08-26T04:00:50.111Z,23.32
2022-08-26T04:03:40.710Z,23.36
2022-08-26T04:06:09.313Z,23.36
2022-08-26T04:08:37.768Z,23.30
2022-08-26T04:11:07.944Z,23.43
2022-08-26T04:13:38.271Z,23.44
2022-08-26T04:16:06.991Z,23.63
2022-08-26T04:18:38.248Z,23.76
2022-08-26T04:21:15.315Z,23.75
2022-08-26T04:23:47.443Z,23.86
2022-08-26T04:26:16.519Z,23.82
2022-08-26T04:28:44.680Z,23.82
2022-08-26T04:31:14.808Z,23.85
2022-08-26T04:33:45.556Z,24.13
2022-08-26T04:36:15.067Z,24.30
2022-08-26T04:38:43.208Z,24.52
2022-08-26T04:41:15.097Z,24.63
2022-08-26T04:43:46.551Z,24.65
2022-08-26T04:46:18.930Z,24.88
2022-08-26T04:48:48.965Z,25.44
2022-08-26T04:51:17.191Z,26.03
2022-08-26T04:53:46.085Z,25.60
2022-08-26T04:56:15.631Z,25.34
2022-08-26T04:58:43.843Z,25.00
2022-08-26T05:01:12.096Z,24.65
2022-08-26T05:03:41.384Z,24.71
2022-08-26T05:06:12.400Z,24.64
2022-08-26T05:08:41.154Z,24.94
2022-08-26T05:11:10.294Z,24.86
2022-08-26T05:13:39.297Z,25.33
2022-08-26T05:16:11.606Z,25.74
2022-08-26T05:18:40.987Z,25.98
2022-08-26T05:21:20.219Z,25.74
2022-08-26T05:23:51.325Z,26.20
2022-08-26T05:26:23.105Z,26.39
2022-08-26T05:28:54.877Z,26.50
2022-08-26T05:31:34.388Z,25.79
2022-08-26T05:34:04.776Z,26.22
2022-08-26T05:36:37.136Z,25.94
2022-08-26T05:39:07.648Z,26.08
2022-08-26T05:41:41.593Z,26.76
2022-08-26T05:44:11.986Z,27.28
2022-08-26T05:46:41.709Z,27.71
2022-08-26T05:49:12.475Z,27.76
2022-08-26T05:51:46.465Z,27.96
2022-08-26T05:54:21.973Z,28.28
2022-08-26T05:56:50.588Z,28.20
2022-08-26T05:59:24.518Z,28.05
2022-08-26T06:01:54.867Z,28.18
2022-08-26T06:04:26.783Z,28.36
2022-08-26T06:07:00.576Z,28.15
2022-08-26T06:09:28.811Z,28.91
2022-08-26T06:11:58.934Z,29.72
2022-08-26T06:14:27.162Z,30.41
2022-08-26T06:16:55.519Z,31.47
2022-08-26T06:19:24.413Z,31.30
2022-08-26T06:21:54.743Z,32.06
2022-08-26T06:24:41.966Z,32.57
2022-08-26T06:27:15.154Z,33.26
2022-08-26T06:29:43.639Z,33.35
2022-08-26T06:32:11.851Z,32.75
2022-08-26T06:34:40.254Z,33.20
2022-08-26T06:37:09.013Z,33.97
2022-08-26T06:39:41.175Z,33.17
2022-08-26T06:42:11.784Z,32.99
2022-08-26T06:44:41.120Z,32.90
2022-08-26T06:47:09.468Z,32.45
2022-08-26T06:49:38.368Z,32.18
2022-08-26T06:52:08.146Z,32.55
2022-08-26T06:54:37.176Z,32.64
2022-08-26T06:57:08.914Z,32.43
2022-08-26T06:59:37.222Z,32.23
2022-08-26T07:02:06.259Z,32.17
2022-08-26T07:04:36.890Z,31.95
2022-08-26T07:07:05.424Z,31.75
2022-08-26T07:09:35.448Z,32.08
2022-08-26T07:12:06.924Z,31.98
2022-08-26T07:14:37.370Z,31.52
2022-08-26T07:17:07.345Z,31.37
2022-08-26T07:19:38.270Z,31.25
2022-08-26T07:22:08.575Z,31.44
2022-08-26T07:24:40.428Z,31.21
2022-08-26T07:27:12.999Z,30.80
2022-08-26T07:29:43.569Z,30.45
2022-08-26T07:32:13.359Z,30.27
2022-08-26T07:34:42.206Z,30.13
2022-08-26T07:37:10.741Z,29.97
2022-08-26T07:39:40.387Z,30.01
2022-08-26T07:42:10.130Z,29.85
2022-08-26T07:44:39.787Z,29.80
2022-08-26T07:47:25.276Z,29.62
2022-08-26T07:49:55.197Z,29.73
2022-08-26T07:52:26.584Z,29.58
2022-08-26T07:54:55.615Z,29.50
2022-08-26T07:57:24.320Z,29.61
2022-08-26T07:59:54.043Z,29.83
2022-08-26T08:02:26.290Z,29.54
2022-08-26T08:04:54.705Z,29.73
2022-08-26T08:07:25.748Z,29.78
2022-08-26T08:10:11.513Z,30.02
2022-08-26T08:12:40.382Z,29.76
2022-08-26T08:15:11.639Z,29.60
2022-08-26T08:17:43.484Z,29.45
2022-08-26T08:20:13.550Z,29.87
2022-08-26T08:22:42.667Z,30.06
2022-08-26T08:25:12.456Z,30.19
2022-08-26T08:27:42.525Z,30.12
2022-08-26T08:30:13.859Z,30.25
2022-08-26T08:32:44.582Z,30.12
2022-08-26T08:35:14.699Z,30.42
2022-08-26T08:37:44.381Z,30.32
2022-08-26T08:40:18.494Z,30.32
2022-08-26T08:45:26.984Z,29.69
2022-08-26T08:47:58.943Z,29.80
2022-08-26T08:50:31.418Z,29.43
2022-08-26T08:53:13.727Z,29.30
2022-08-26T09:03:31.090Z,28.93
2022-08-26T09:06:02.634Z,28.84
2022-08-26T09:08:35.860Z,29.14
2022-08-26T09:11:05.361Z,29.08
2022-08-26T09:13:35.721Z,29.34
2022-08-26T09:16:08.380Z,29.33
2022-08-26T09:19:02.916Z,29.85
2022-08-26T09:21:32.418Z,30.23
2022-08-26T09:24:01.505Z,30.05
2022-08-26T09:26:31.876Z,30.02
2022-08-26T09:29:02.576Z,30.15
2022-08-26T09:31:33.663Z,30.11
2022-08-26T09:34:17.241Z,29.87
2022-08-26T09:36:49.219Z,29.94
2022-08-26T09:39:30.430Z,30.04
2022-08-26T09:42:09.738Z,29.81
2022-08-26T09:44:56.689Z,29.99
2022-08-26T09:47:28.604Z,29.68
2022-08-26T09:50:09.459Z,29.85
2022-08-26T09:52:40.642Z,29.52
2022-08-26T09:55:15.672Z,29.12
2022-08-26T09:57:51.228Z,29.16
2022-08-26T10:00:29.111Z,28.97
2022-08-26T10:02:58.310Z,28.60
2022-08-26T10:05:41.089Z,28.40
2022-08-26T10:08:22.988Z,28.17
2022-08-26T10:10:53.160Z,28.53
2022-08-26T10:13:27.998Z,28.73
2022-08-26T10:16:05.614Z,28.55
2022-08-26T10:18:37.038Z,28.25
2022-08-26T10:21:12.064Z,28.71
2022-08-26T10:23:43.945Z,28.74
2022-08-26T10:26:17.569Z,28.86
2022-08-26T10:28:54.192Z,28.84
2022-08-26T10:31:28.947Z,28.37
2022-08-26T10:34:00.443Z,27.93
2022-08-26T10:37:14.819Z,28.03
2022-08-26T10:39:55.246Z,28.80
2022-08-26T10:42:35.517Z,28.77
2022-08-26T10:45:15.013Z,28.79
2022-08-26T10:47:50.865Z,29.03
2022-08-26T10:50:21.043Z,29.05
2022-08-26T10:53:03.194Z,29.15
2022-08-26T10:55:37.388Z,29.03
2022-08-26T10:58:26.725Z,29.23
2022-08-26T11:01:23.268Z,29.12
2022-08-26T11:03:58.877Z,28.95
2022-08-26T11:06:29.775Z,29.11
2022-08-26T11:09:02.681Z,29.07
2022-08-26T11:11:51.235Z,28.95
2022-08-26T11:14:41.016Z,28.71
2022-08-26T11:17:58.436Z,28.77
2022-08-26T11:20:41.556Z,28.65
2022-08-26T11:23:41.685Z,28.48
2022-08-26T11:26:35.852Z,28.51
2022-08-26T11:29:12.044Z,28.46
2022-08-26T11:31:56.553Z,28.52
2022-08-26T11:34:52.235Z,28.44
2022-08-26T11:39:57.312Z,28.66
2022-08-26T11:42:36.957Z,28.51
2022-08-26T11:45:18.584Z,28.19
2022-08-26T11:47:49.366Z,28.34
2022-08-26T11:50:21.561Z,28.34
2022-08-26T11:52:54.075Z,28.20
2022-08-26T11:55:23.478Z,28.24
2022-08-26T11:57:57.322Z,28.04
2022-08-26T12:00:33.399Z,28.17
2022-08-26T12:03:07.635Z,28.22
2022-08-26T12:05:43.907Z,28.14
2022-08-26T12:08:17.626Z,28.26
2022-08-26T12:10:46.219Z,28.17
2022-08-26T12:13:23.296Z,28.24
2022-08-26T12:15:55.921Z,28.31
2022-08-26T12:18:29.511Z,28.30
2022-08-26T12:21:01.487Z,28.40
2022-08-26T12:23:41.770Z,28.29
2022-08-26T12:26:20.626Z,28.22
2022-08-26T12:28:53.607Z,28.26
2022-08-26T12:31:25.278Z,28.27
2022-08-26T12:33:54.234Z,28.31
2022-08-26T12:36:28.545Z,28.38
2022-08-26T12:38:58.563Z,28.24
2022-08-26T12:41:43.855Z,28.29
2022-08-26T12:44:54.247Z,28.25
2022-08-26T12:47:32.704Z,27.54
2022-08-26T12:50:18.412Z,27.26
2022-08-26T12:52:57.530Z,27.62
2022-08-26T12:55:36.631Z,27.56
2022-08-26T12:58:15.278Z,27.71
2022-08-26T13:00:46.384Z,27.92
2022-08-26T13:03:32.689Z,28.14
2022-08-26T13:06:17.095Z,28.46
2022-08-26T13:08:48.631Z,28.37
2022-08-26T13:11:20.801Z,28.29
2022-08-26T13:13:51.768Z,28.40
2022-08-26T13:16:22.199Z,28.28
2022-08-26T13:18:52.541Z,28.25
2022-08-26T13:21:22.778Z,28.08
2022-08-26T13:23:51.946Z,28.08
2022-08-26T13:26:20.553Z,27.96
2022-08-26T13:29:01.549Z,28.04
2022-08-26T13:31:34.650Z,28.09
2022-08-26T13:34:03.664Z,28.02
2022-08-26T13:36:32.049Z,27.92
2022-08-26T13:39:00.753Z,27.62
2022-08-26T13:41:29.133Z,27.73
2022-08-26T13:43:58.884Z,27.73
2022-08-26T13:46:28.293Z,27.70
2022-08-26T13:48:58.593Z,27.68
2022-08-26T13:51:28.653Z,27.67
2022-08-26T13:53:57.501Z,27.74
2022-08-26T13:56:27.523Z,27.69
2022-08-26T13:58:56.400Z,27.75
2022-08-26T14:01:25.340Z,27.59
2022-08-26T14:03:53.580Z,27.64
2022-08-26T14:06:23.884Z,27.63
2022-08-26T14:08:52.040Z,27.46
2022-08-26T14:11:20.619Z,27.54
2022-08-26T14:13:48.785Z,27.48
2022-08-26T14:16:23.147Z,27.46
2022-08-26T14:18:51.781Z,27.48
2022-08-26T14:21:20.662Z,27.35
2022-08-26T14:23:50.292Z,27.50
2022-08-26T14:26:28.443Z,27.43
2022-08-26T14:28:59.128Z,27.33
2022-08-26T14:31:29.337Z,27.27
2022-08-26T14:33:59.839Z,27.08
2022-08-26T14:36:32.429Z,27.10
2022-08-26T14:39:05.071Z,27.10
2022-08-26T14:41:34.370Z,27.05
2022-08-26T14:44:05.792Z,26.98
2022-08-26T14:46:43.769Z,27.11
2022-08-26T14:49:12.125Z,27.15
2022-08-26T14:51:41.032Z,27.09
2022-08-26T14:54:14.869Z,27.06
2022-08-26T14:56:47.267Z,27.17
2022-08-26T14:59:17.685Z,27.13
2022-08-26T15:01:46.474Z,27.07
2022-08-26T15:04:14.951Z,27.23
2022-08-26T15:06:43.304Z,27.26
2022-08-26T15:09:13.438Z,27.24
2022-08-26T15:11:41.571Z,27.22
2022-08-26T15:14:14.698Z,27.26
2022-08-26T15:16:48.040Z,27.26
2022-08-26T15:19:16.553Z,27.15
2022-08-26T15:21:45.757Z,27.12
2022-08-26T15:24:17.296Z,27.20
2022-08-26T15:26:46.810Z,27.19
2022-08-26T15:29:15.516Z,27.17
2022-08-26T15:31:43.850Z,27.13
2022-08-26T15:34:16.694Z,27.08
2022-08-26T15:36:46.982Z,27.02
2022-08-26T15:39:18.260Z,27.04
2022-08-26T15:41:46.503Z,26.99
2022-08-26T15:44:17.945Z,26.88
2022-08-26T15:46:46.750Z,26.84
2022-08-26T15:49:17.505Z,26.90
2022-08-26T15:51:50.381Z,26.86
2022-08-26T15:54:22.488Z,26.82
2022-08-26T15:56:52.446Z,26.77
2022-08-26T15:59:22.509Z,26.68
2022-08-26T16:01:50.863Z,26.72
2022-08-26T16:04:19.122Z,26.65
2022-08-26T16:06:50.434Z,26.74
2022-08-26T16:09:21.322Z,26.59
2022-08-26T16:11:50.430Z,26.55
2022-08-26T16:14:18.578Z,26.48
2022-08-26T16:16:47.234Z,26.55
2022-08-26T16:19:15.542Z,26.61
2022-08-26T16:21:44.736Z,26.60
2022-08-26T16:24:13.167Z,26.52
2022-08-26T16:26:45.340Z,26.49
2022-08-26T16:29:15.544Z,26.43
2022-08-26T16:36:35.655Z,26.15
2022-08-26T16:39:03.943Z,26.11
2022-08-26T16:41:32.894Z,26.06
2022-08-26T16:44:02.830Z,25.88
2022-08-26T16:46:31.381Z,25.92
2022-08-26T16:49:03.688Z,25.45
2022-08-26T16:51:38.080Z,25.17
2022-08-26T16:54:08.830Z,24.96
2022-08-26T16:56:37.892Z,24.81
2022-08-26T16:59:11.743Z,24.71
2022-08-26T17:01:40.093Z,24.62
2022-08-26T17:04:08.373Z,24.55
2022-08-26T17:06:36.642Z,24.63
2022-08-26T17:09:05.517Z,24.52
2022-08-26T17:11:34.219Z,24.52
2022-08-26T17:14:02.967Z,24.51
2022-08-26T17:16:33.400Z,24.47
2022-08-26T17:19:01.780Z,24.47
2022-08-26T17:21:30.151Z,24.52
2022-08-26T17:23:58.609Z,24.55
2022-08-26T17:26:27.113Z,24.53
2022-08-26T17:28:56.047Z,24.47
2022-08-26T17:31:25.206Z,24.47
2022-08-26T17:33:55.581Z,24.57
2022-08-26T17:36:27.521Z,24.52
2022-08-26T17:38:57.563Z,24.45
2022-08-26T17:41:26.431Z,24.50
2022-08-26T17:43:55.067Z,24.62
2022-08-26T17:46:23.638Z,24.63
2022-08-26T17:48:51.803Z,24.51
2022-08-26T17:51:23.563Z,24.44
2022-08-26T17:53:52.671Z,24.44
2022-08-26T17:56:24.271Z,24.43
2022-08-26T17:58:53.944Z,24.35
2022-08-26T18:01:26.106Z,24.33
2022-08-26T18:04:00.091Z,24.32
2022-08-26T18:06:31.679Z,24.32
2022-08-26T18:09:00.967Z,24.33
2022-08-26T18:11:29.982Z,24.27
2022-08-26T18:13:58.195Z,24.24
2022-08-26T18:16:26.564Z,24.41
2022-08-26T18:18:55.330Z,24.52
2022-08-26T18:21:25.856Z,24.61
2022-08-26T18:23:56.421Z,24.50
2022-08-26T18:26:27.906Z,24.55
2022-08-26T18:28:57.384Z,24.52
2022-08-26T18:31:26.160Z,24.47
2022-08-26T18:33:54.497Z,24.28
2022-08-26T18:36:25.628Z,24.26
2022-08-26T18:38:56.022Z,24.20
2022-08-26T18:41:27.110Z,24.22
2022-08-26T18:43:56.091Z,24.33
2022-08-26T18:46:26.150Z,24.33
2022-08-26T18:48:54.880Z,24.33
2022-08-26T18:51:25.316Z,24.24
2022-08-26T18:53:54.278Z,24.11
2022-08-26T18:56:24.278Z,24.12
2022-08-26T18:58:52.698Z,23.99
2022-08-26T19:01:25.505Z,23.98
2022-08-26T19:03:55.852Z,24.00
2022-08-26T19:06:25.355Z,24.03
2022-08-26T19:08:53.936Z,24.28
2022-08-26T19:11:32.484Z,24.31
2022-08-26T19:14:07.792Z,24.33
2022-08-26T19:16:37.500Z,24.35
2022-08-26T19:19:07.090Z,24.47
2022-08-26T19:21:37.079Z,24.49
2022-08-26T19:24:09.388Z,24.51
2022-08-26T19:26:39.311Z,24.48
2022-08-26T19:29:07.773Z,24.41
2022-08-26T19:31:36.503Z,24.31
2022-08-26T19:34:05.467Z,24.35
2022-08-26T19:36:34.520Z,24.32
2022-08-26T19:39:07.665Z,24.20
2022-08-26T19:41:40.807Z,24.09
2022-08-26T19:44:13.037Z,23.91
2022-08-26T19:46:41.747Z,23.83
2022-08-26T19:49:09.877Z,23.75
2022-08-26T19:51:38.170Z,23.72
2022-08-26T19:54:06.629Z,23.71
2022-08-26T19:56:36.643Z,23.66
2022-08-26T19:59:06.143Z,23.63
2022-08-26T20:01:34.421Z,23.57
2022-08-26T20:04:03.023Z,23.53
2022-08-26T20:06:31.488Z,23.54
2022-08-26T20:08:59.726Z,23.51
2022-08-26T20:11:28.218Z,23.50
2022-08-26T20:13:57.231Z,23.52
2022-08-26T20:16:26.994Z,23.50
2022-08-26T20:19:12.616Z,23.49
2022-08-26T20:21:42.610Z,23.43
2022-08-26T20:24:13.653Z,23.40
2022-08-26T20:26:43.675Z,23.51
2022-08-26T20:29:13.680Z,23.53
2022-08-26T20:31:44.222Z,23.60
2022-08-26T20:34:13.332Z,23.61
2022-08-26T20:36:44.662Z,23.61
2022-08-26T20:39:13.148Z,23.59
2022-08-26T20:41:41.614Z,23.57
2022-08-26T20:44:10.816Z,23.54
2022-08-26T20:46:39.004Z,23.56
2022-08-26T20:49:09.099Z,23.50
2022-08-26T20:51:38.612Z,23.49
2022-08-26T20:54:08.310Z,23.52
2022-08-26T20:56:37.914Z,23.49
2022-08-26T20:59:07.659Z,23.44
2022-08-26T21:01:42.412Z,23.40
2022-08-26T21:04:15.414Z,23.38
2022-08-26T21:06:47.239Z,23.41
2022-08-26T21:09:21.488Z,23.37
2022-08-26T21:11:49.978Z,23.37
2022-08-26T21:14:19.087Z,23.31
2022-08-26T21:16:48.156Z,23.23
2022-08-26T21:19:19.807Z,23.22
2022-08-26T21:21:49.340Z,23.16
2022-08-26T21:24:18.183Z,23.16
2022-08-26T21:26:49.033Z,23.20
2022-08-26T21:29:17.406Z,23.07
2022-08-26T21:31:46.685Z,22.98
2022-08-26T21:34:15.878Z,23.01
2022-08-26T21:36:46.298Z,22.92
2022-08-26T21:39:14.942Z,22.88
2022-08-26T21:41:44.168Z,22.80
2022-08-26T21:44:13.857Z,22.81
2022-08-26T21:46:44.501Z,22.82
2022-08-26T21:49:15.391Z,22.79
2022-08-26T21:51:47.494Z,22.77
2022-08-26T21:54:15.937Z,22.72
2022-08-26T21:56:47.255Z,22.67
2022-08-26T21:59:17.600Z,22.64
2022-08-26T22:01:46.135Z,22.60
2022-08-26T22:04:14.408Z,22.58
2022-08-26T22:06:44.629Z,22.54
2022-08-26T22:09:15.670Z,22.54
2022-08-26T22:11:44.499Z,22.58
2022-08-26T22:14:13.001Z,22.50
2022-08-26T22:16:41.699Z,22.39
2022-08-26T22:19:20.054Z,22.38
2022-08-26T22:21:50.210Z,22.43
2022-08-26T22:24:21.082Z,22.49
2022-08-26T22:26:50.134Z,22.56
2022-08-26T22:29:18.861Z,22.60
2022-08-26T22:31:47.453Z,22.57
2022-08-26T22:34:17.493Z,22.63
2022-08-26T22:36:49.180Z,22.74
2022-08-26T22:39:21.090Z,22.76
2022-08-26T22:41:49.870Z,22.80
2022-08-26T22:44:19.485Z,22.87
2022-08-26T22:46:48.434Z,22.90
2022-08-26T22:49:17.155Z,22.86
2022-08-26T22:51:45.834Z,22.87
2022-08-26T22:54:14.435Z,22.88
2022-08-26T22:56:44.793Z,22.96
2022-08-26T22:59:13.588Z,23.01
2022-08-26T23:01:44.787Z,23.05
2022-08-26T23:04:13.520Z,22.99
2022-08-26T23:06:47.710Z,22.95
2022-08-26T23:09:18.429Z,22.89
2022-08-26T23:11:49.808Z,22.88
2022-08-26T23:14:19.705Z,22.89
2022-08-26T23:16:49.365Z,22.92
2022-08-26T23:19:21.353Z,22.99
2022-08-26T23:21:50.645Z,23.20
2022-08-26T23:24:19.432Z,23.32
2022-08-26T23:26:49.665Z,23.41
2022-08-26T23:29:17.943Z,23.39
2022-08-26T23:31:46.295Z,23.42
2022-08-26T23:34:32.309Z,23.56
2022-08-26T23:37:01.460Z,23.52
2022-08-26T23:39:30.196Z,23.58
2022-08-26T23:42:01.771Z,23.51
2022-08-26T23:44:30.694Z,23.50
2022-08-26T23:46:59.210Z,23.49
2022-08-26T23:49:28.068Z,23.38
2022-08-26T23:52:13.647Z,23.46
2022-08-26T23:54:41.919Z,23.52
2022-08-26T23:57:11.740Z,23.54
2022-08-26T23:59:40.319Z,23.48
